TimeCST,TemperatureF,Dew PointF,Humidity,Sea Level PressureIn,VisibilityMPH,Wind Direction,Wind SpeedMPH,Gust SpeedMPH,PrecipitationIn,Events,Conditions,WindDirDegrees,DateUTC
12:56 AM,53.1,51.1,93,30.24,6.0,NE,4.6,-,N/A,,Clear,40,2012-11-29 06:56:00
1:56 AM,53.1,51.1,93,30.23,6.0,NNE,4.6,-,N/A,,Clear,20,2012-11-29 07:56:00
2:56 AM,52.0,51.1,97,30.21,6.0,NNE,4.6,-,N/A,,Clear,20,2012-11-29 08:56:00
3:56 AM,53.1,51.1,93,30.20,4.0,NNE,5.8,-,N/A,,Clear,30,2012-11-29 09:56:00
4:56 AM,53.1,51.1,93,30.20,5.0,NNE,6.9,-,N/A,,Clear,30,2012-11-29 10:56:00
5:56 AM,53.1,51.1,93,30.19,5.0,NE,5.8,-,N/A,,Clear,40,2012-11-29 11:56:00
6:35 AM,51.8,51.8,100,30.21,4.0,NNE,4.6,-,N/A,,Mostly Cloudy,20,2012-11-29 12:35:00
6:56 AM,52.0,51.1,97,30.20,4.0,NNE,4.6,-,N/A,,Mostly Cloudy,20,2012-11-29 12:56:00
7:56 AM,54.0,53.1,97,30.21,6.0,NE,3.5,-,N/A,,Mostly Cloudy,50,2012-11-29 13:56:00
8:56 AM,62.1,57.9,86,30.22,7.0,NE,6.9,-,N/A,,Mostly Cloudy,40,2012-11-29 14:56:00
9:56 AM,66.9,60.1,79,30.23,10.0,NE,8.1,-,N/A,,Overcast,40,2012-11-29 15:56:00
10:56 AM,71.1,62.1,73,30.22,10.0,East,5.8,-,N/A,,Mostly Cloudy,90,2012-11-29 16:56:00
11:34 AM,71.6,62.6,73,30.21,10.0,ENE,6.9,-,N/A,,Overcast,70,2012-11-29 17:34:00
11:56 AM,73.9,62.1,66,30.19,10.0,East,6.9,-,N/A,,Overcast,80,2012-11-29 17:56:00
12:12 PM,73.4,62.6,69,30.20,10.0,East,6.9,-,N/A,,Overcast,90,2012-11-29 18:12:00
12:56 PM,73.9,62.1,66,30.16,10.0,SE,6.9,-,N/A,,Overcast,130,2012-11-29 18:56:00
1:56 PM,73.9,61.0,64,30.13,10.0,East,9.2,-,N/A,,Mostly Cloudy,80,2012-11-29 19:56:00
2:56 PM,75.0,61.0,62,30.11,10.0,ESE,6.9,-,N/A,,Mostly Cloudy,110,2012-11-29 20:56:00
3:56 PM,75.0,57.9,55,30.10,10.0,SE,9.2,-,N/A,,Mostly Cloudy,130,2012-11-29 21:56:00
4:56 PM,73.0,59.0,61,30.10,10.0,ESE,8.1,-,N/A,,Mostly Cloudy,110,2012-11-29 22:56:00
5:56 PM,71.1,59.0,66,30.11,10.0,SE,4.6,-,N/A,,Mostly Cloudy,130,2012-11-29 23:56:00
6:56 PM,70.0,60.1,71,30.12,10.0,ESE,5.8,-,N/A,,Mostly Cloudy,120,2012-11-30 00:56:00
7:56 PM,69.1,61.0,75,30.13,10.0,East,3.5,-,N/A,,Mostly Cloudy,100,2012-11-30 01:56:00
8:56 PM,68.0,62.1,81,30.13,10.0,East,4.6,-,N/A,,Mostly Cloudy,100,2012-11-30 02:56:00
9:56 PM,68.0,63.0,84,30.14,10.0,East,3.5,-,N/A,,Mostly Cloudy,90,2012-11-30 03:56:00
10:56 PM,66.9,62.1,84,30.14,10.0,Calm,Calm,-,N/A,,Mostly Cloudy,0,2012-11-30 04:56:00
11:56 PM,64.9,62.1,90,30.13,10.0,Calm,Calm,-,N/A,,Mostly Cloudy,0,2012-11-30 05:56:00